sensor_id;sensor_type;location;lat;lon;timestamp;temperature;humidity
3023;DHT22;1521;53.584;9.938;2023-04-03T00:00:04;-0.30;1.00
3023;DHT22;1521;53.584;9.938;2023-04-03T00:02:30;-0.30;1.00
3023;DHT22;1521;53.584;9.938;2023-04-03T00:04:56;-0.30;3.10
3023;DHT22;1521;53.584;9.938;2023-04-03T00:07:21;-0.40;99.90
3023;DHT22;1521;53.584;9.938;2023-04-03T00:09:47;-0.40;59.70
3023;DHT22;1521;53.584;9.938;2023-04-03T00:12:13;-0.40;90.80
3023;DHT22;1521;53.584;9.938;2023-04-03T00:14:38;-0.40;99.90
3023;DHT22;1521;53.584;9.938;2023-04-03T00:17:04;-0.40;99.90
3023;DHT22;1521;53.584;9.938;2023-04-03T00:19:30;-0.40;99.90
3023;DHT22;1521;53.584;9.938;2023-04-03T00:21:56;-0.40;99.90
3023;DHT22;1521;53.584;9.938;2023-04-03T00:24:21;-0.40;99.90
3023;DHT22;1521;53.584;9.938;2023-04-03T00:26:47;-0.40;99.90
3023;DHT22;1521;53.584;9.938;2023-04-03T00:29:12;-0.50;99.90
3023;DHT22;1521;53.584;9.938;2023-04-03T00:31:38;-0.50;99.90
3023;DHT22;1521;53.584;9.938;2023-04-03T00:34:04;-0.50;99.90
3023;DHT22;1521;53.584;9.938;2023-04-03T00:36:29;-0.50;99.90
3023;DHT22;1521;53.584;9.938;2023-04-03T00:38:55;-0.50;99.90
3023;DHT22;1521;53.584;9.938;2023-04-03T00:41:21;-0.50;99.90
3023;DHT22;1521;53.584;9.938;2023-04-03T00:43:46;-0.60;99.90
3023;DHT22;1521;53.584;9.938;2023-04-03T00:46:12;-0.50;99.90
3023;DHT22;1521;53.584;9.938;2023-04-03T00:48:43;-0.50;99.90
3023;DHT22;1521;53.584;9.938;2023-04-03T00:51:13;-0.60;99.90
3023;DHT22;1521;53.584;9.938;2023-04-03T00:53:47;-0.60;1.00
3023;DHT22;1521;53.584;9.938;2023-04-03T00:56:17;-0.60;1.00
3023;DHT22;1521;53.584;9.938;2023-04-03T00:58:51;-0.60;1.00
3023;DHT22;1521;53.584;9.938;2023-04-03T01:01:21;-0.60;1.00
3023;DHT22;1521;53.584;9.938;2023-04-03T01:03:48;-0.60;1.00
3023;DHT22;1521;53.584;9.938;2023-04-03T01:06:16;-0.60;1.00
3023;DHT22;1521;53.584;9.938;2023-04-03T01:08:42;-0.60;1.00
3023;DHT22;1521;53.584;9.938;2023-04-03T01:11:09;-0.70;1.00
3023;DHT22;1521;53.584;9.938;2023-04-03T01:13:34;-0.70;1.00
3023;DHT22;1521;53.584;9.938;2023-04-03T01:16:02;-0.70;1.00
3023;DHT22;1521;53.584;9.938;2023-04-03T01:18:28;-0.70;1.00
3023;DHT22;1521;53.584;9.938;2023-04-03T01:23:25;-0.80;1.00
3023;DHT22;1521;53.584;9.938;2023-04-03T01:25:54;-0.80;1.00
3023;DHT22;1521;53.584;9.938;2023-04-03T01:28:26;-0.80;1.00
3023;DHT22;1521;53.584;9.938;2023-04-03T01:33:53;-0.90;99.90
3023;DHT22;1521;53.584;9.938;2023-04-03T01:36:22;-0.90;20.90
3023;DHT22;1521;53.584;9.938;2023-04-03T01:38:49;-0.90;29.60
3023;DHT22;1521;53.584;9.938;2023-04-03T01:41:15;-1.00;99.90
3023;DHT22;1521;53.584;9.938;2023-04-03T01:43:41;-1.00;99.90
3023;DHT22;1521;53.584;9.938;2023-04-03T01:46:07;-1.00;99.90
3023;DHT22;1521;53.584;9.938;2023-04-03T01:48:33;-1.00;99.90
3023;DHT22;1521;53.584;9.938;2023-04-03T01:50:59;-1.00;99.90
3023;DHT22;1521;53.584;9.938;2023-04-03T01:53:25;-1.00;99.90
3023;DHT22;1521;53.584;9.938;2023-04-03T01:55:50;-1.00;99.90
3023;DHT22;1521;53.584;9.938;2023-04-03T01:58:16;-1.10;1.00
3023;DHT22;1521;53.584;9.938;2023-04-03T02:00:42;-1.10;1.00
3023;DHT22;1521;53.584;9.938;2023-04-03T02:03:07;-1.10;1.00
3023;DHT22;1521;53.584;9.938;2023-04-03T02:05:33;-1.20;1.00
3023;DHT22;1521;53.584;9.938;2023-04-03T02:07:59;-1.20;1.00
3023;DHT22;1521;53.584;9.938;2023-04-03T02:10:25;-1.20;1.00
3023;DHT22;1521;53.584;9.938;2023-04-03T02:12:51;-1.20;99.90
3023;DHT22;1521;53.584;9.938;2023-04-03T02:15:17;-1.20;99.90
3023;DHT22;1521;53.584;9.938;2023-04-03T02:17:43;-1.20;99.90
3023;DHT22;1521;53.584;9.938;2023-04-03T02:20:08;-1.20;99.90
3023;DHT22;1521;53.584;9.938;2023-04-03T02:22:34;-1.20;1.00
3023;DHT22;1521;53.584;9.938;2023-04-03T02:25:00;-1.20;1.00
3023;DHT22;1521;53.584;9.938;2023-04-03T02:27:26;-1.20;99.90
3023;DHT22;1521;53.584;9.938;2023-04-03T02:29:52;-1.30;99.90
3023;DHT22;1521;53.584;9.938;2023-04-03T02:32:18;-1.30;99.90
3023;DHT22;1521;53.584;9.938;2023-04-03T02:34:43;-1.30;99.90
3023;DHT22;1521;53.584;9.938;2023-04-03T02:37:09;-1.30;1.00
3023;DHT22;1521;53.584;9.938;2023-04-03T02:39:34;-1.30;1.00
3023;DHT22;1521;53.584;9.938;2023-04-03T02:42:00;-1.30;1.00
3023;DHT22;1521;53.584;9.938;2023-04-03T02:44:26;-1.30;1.00
3023;DHT22;1521;53.584;9.938;2023-04-03T02:46:51;-1.40;1.00
3023;DHT22;1521;53.584;9.938;2023-04-03T02:49:17;-1.40;1.00
3023;DHT22;1521;53.584;9.938;2023-04-03T02:51:43;-1.40;99.90
3023;DHT22;1521;53.584;9.938;2023-04-03T02:54:08;-1.40;99.90
3023;DHT22;1521;53.584;9.938;2023-04-03T02:56:34;-1.40;99.90
3023;DHT22;1521;53.584;9.938;2023-04-03T02:59:00;-1.40;99.90
3023;DHT22;1521;53.584;9.938;2023-04-03T03:01:25;-1.40;99.90
3023;DHT22;1521;53.584;9.938;2023-04-03T03:03:54;-1.50;99.90
3023;DHT22;1521;53.584;9.938;2023-04-03T03:06:19;-1.50;99.90
3023;DHT22;1521;53.584;9.938;2023-04-03T03:08:45;-1.50;99.90
3023;DHT22;1521;53.584;9.938;2023-04-03T03:11:11;-1.60;99.90
3023;DHT22;1521;53.584;9.938;2023-04-03T03:13:37;-1.60;1.00
3023;DHT22;1521;53.584;9.938;2023-04-03T03:16:03;-1.60;1.00
3023;DHT22;1521;53.584;9.938;2023-04-03T03:18:29;-1.60;99.90
3023;DHT22;1521;53.584;9.938;2023-04-03T03:20:56;-1.60;1.00
3023;DHT22;1521;53.584;9.938;2023-04-03T03:23:24;-1.60;99.90
3023;DHT22;1521;53.584;9.938;2023-04-03T03:25:58;-1.60;1.00
3023;DHT22;1521;53.584;9.938;2023-04-03T03:28:24;-1.60;1.00
3023;DHT22;1521;53.584;9.938;2023-04-03T03:30:49;-1.70;1.00
3023;DHT22;1521;53.584;9.938;2023-04-03T03:33:15;-1.70;99.90
3023;DHT22;1521;53.584;9.938;2023-04-03T03:35:42;-1.70;1.00
3023;DHT22;1521;53.584;9.938;2023-04-03T03:38:08;-1.70;99.90
3023;DHT22;1521;53.584;9.938;2023-04-03T03:40:34;-1.70;1.00
3023;DHT22;1521;53.584;9.938;2023-04-03T03:43:00;-1.70;1.00
3023;DHT22;1521;53.584;9.938;2023-04-03T03:45:25;-1.70;1.00
3023;DHT22;1521;53.584;9.938;2023-04-03T03:47:51;-1.80;99.90
3023;DHT22;1521;53.584;9.938;2023-04-03T03:50:16;-1.80;1.00
3023;DHT22;1521;53.584;9.938;2023-04-03T03:52:42;-1.80;99.90
3023;DHT22;1521;53.584;9.938;2023-04-03T03:55:08;-1.70;99.90
3023;DHT22;1521;53.584;9.938;2023-04-03T03:57:33;-1.70;1.00
3023;DHT22;1521;53.584;9.938;2023-04-03T03:59:59;-1.70;1.70
3023;DHT22;1521;53.584;9.938;2023-04-03T04:02:25;-1.80;1.00
3023;DHT22;1521;53.584;9.938;2023-04-03T04:04:50;-1.80;1.00
3023;DHT22;1521;53.584;9.938;2023-04-03T04:07:16;-1.80;1.00
3023;DHT22;1521;53.584;9.938;2023-04-03T04:09:41;-1.80;99.90
3023;DHT22;1521;53.584;9.938;2023-04-03T04:12:07;-1.80;1.00
3023;DHT22;1521;53.584;9.938;2023-04-03T04:14:33;-1.80;1.00
3023;DHT22;1521;53.584;9.938;2023-04-03T04:16:58;-1.80;1.00
3023;DHT22;1521;53.584;9.938;2023-04-03T04:19:24;-1.80;1.00
3023;DHT22;1521;53.584;9.938;2023-04-03T04:21:49;-1.90;99.90
3023;DHT22;1521;53.584;9.938;2023-04-03T04:24:15;-1.90;1.00
3023;DHT22;1521;53.584;9.938;2023-04-03T04:26:41;-1.90;1.00
3023;DHT22;1521;53.584;9.938;2023-04-03T04:29:09;-1.90;26.00
3023;DHT22;1521;53.584;9.938;2023-04-03T04:31:35;-1.90;1.00
3023;DHT22;1521;53.584;9.938;2023-04-03T04:34:00;-1.90;1.00
3023;DHT22;1521;53.584;9.938;2023-04-03T04:36:26;-2.00;1.00
3023;DHT22;1521;53.584;9.938;2023-04-03T04:38:52;-2.00;99.90
3023;DHT22;1521;53.584;9.938;2023-04-03T04:41:21;-2.00;1.00
3023;DHT22;1521;53.584;9.938;2023-04-03T04:43:50;-2.00;56.40
3023;DHT22;1521;53.584;9.938;2023-04-03T04:46:17;-2.00;1.00
3023;DHT22;1521;53.584;9.938;2023-04-03T04:48:43;-2.10;1.00
3023;DHT22;1521;53.584;9.938;2023-04-03T04:51:08;-2.10;1.00
3023;DHT22;1521;53.584;9.938;2023-04-03T04:53:34;-2.10;1.00
3023;DHT22;1521;53.584;9.938;2023-04-03T04:56:00;-2.10;1.00
3023;DHT22;1521;53.584;9.938;2023-04-03T04:58:25;-2.10;99.90
3023;DHT22;1521;53.584;9.938;2023-04-03T05:01:05;-2.10;1.00
3023;DHT22;1521;53.584;9.938;2023-04-03T05:03:31;-2.00;99.90
3023;DHT22;1521;53.584;9.938;2023-04-03T05:05:57;-2.10;1.00
3023;DHT22;1521;53.584;9.938;2023-04-03T05:08:23;-2.00;1.00
3023;DHT22;1521;53.584;9.938;2023-04-03T05:10:48;-2.00;1.00
3023;DHT22;1521;53.584;9.938;2023-04-03T05:13:14;-2.00;1.00
3023;DHT22;1521;53.584;9.938;2023-04-03T05:15:40;-2.00;99.90
3023;DHT22;1521;53.584;9.938;2023-04-03T05:18:06;-1.90;99.90
3023;DHT22;1521;53.584;9.938;2023-04-03T05:20:32;-1.90;99.90
3023;DHT22;1521;53.584;9.938;2023-04-03T05:22:58;-1.80;1.00
3023;DHT22;1521;53.584;9.938;2023-04-03T05:25:23;-1.80;1.00
3023;DHT22;1521;53.584;9.938;2023-04-03T05:27:50;-1.80;1.00
3023;DHT22;1521;53.584;9.938;2023-04-03T05:30:16;-1.70;1.00
3023;DHT22;1521;53.584;9.938;2023-04-03T05:32:42;-1.70;1.00
3023;DHT22;1521;53.584;9.938;2023-04-03T05:35:08;-1.60;1.00
3023;DHT22;1521;53.584;9.938;2023-04-03T05:37:34;-1.50;1.00
3023;DHT22;1521;53.584;9.938;2023-04-03T05:40:00;-1.50;1.00
3023;DHT22;1521;53.584;9.938;2023-04-03T05:42:26;-1.40;1.00
3023;DHT22;1521;53.584;9.938;2023-04-03T05:44:52;-1.40;1.00
3023;DHT22;1521;53.584;9.938;2023-04-03T05:47:19;-1.30;1.00
3023;DHT22;1521;53.584;9.938;2023-04-03T05:49:45;-1.30;1.00
3023;DHT22;1521;53.584;9.938;2023-04-03T05:52:37;-1.20;1.00
3023;DHT22;1521;53.584;9.938;2023-04-03T05:55:03;-1.20;1.00
3023;DHT22;1521;53.584;9.938;2023-04-03T05:57:29;-1.10;99.90
3023;DHT22;1521;53.584;9.938;2023-04-03T05:59:55;-1.10;99.90
3023;DHT22;1521;53.584;9.938;2023-04-03T06:02:22;-1.00;3.60
3023;DHT22;1521;53.584;9.938;2023-04-03T06:04:48;-0.90;1.00
3023;DHT22;1521;53.584;9.938;2023-04-03T06:07:19;-0.80;1.00
3023;DHT22;1521;53.584;9.938;2023-04-03T06:09:46;-0.70;99.90
3023;DHT22;1521;53.584;9.938;2023-04-03T06:12:12;-0.60;1.00
3023;DHT22;1521;53.584;9.938;2023-04-03T06:14:38;-0.50;99.90
3023;DHT22;1521;53.584;9.938;2023-04-03T06:17:03;-0.40;1.00
3023;DHT22;1521;53.584;9.938;2023-04-03T06:19:30;-0.20;99.90
3023;DHT22;1521;53.584;9.938;2023-04-03T06:21:56;0.10;1.00
3023;DHT22;1521;53.584;9.938;2023-04-03T06:24:21;0.50;99.90
3023;DHT22;1521;53.584;9.938;2023-04-03T06:26:49;0.90;91.30
3023;DHT22;1521;53.584;9.938;2023-04-03T06:29:16;1.20;1.00
3023;DHT22;1521;53.584;9.938;2023-04-03T06:31:42;1.60;99.90
3023;DHT22;1521;53.584;9.938;2023-04-03T06:34:08;1.90;1.00
3023;DHT22;1521;53.584;9.938;2023-04-03T06:36:34;2.20;99.90
3023;DHT22;1521;53.584;9.938;2023-04-03T06:39:00;2.60;99.90
3023;DHT22;1521;53.584;9.938;2023-04-03T06:41:25;2.90;1.00
3023;DHT22;1521;53.584;9.938;2023-04-03T06:43:52;3.20;99.90
3023;DHT22;1521;53.584;9.938;2023-04-03T06:46:20;3.50;99.90
3023;DHT22;1521;53.584;9.938;2023-04-03T06:48:46;3.80;99.90
3023;DHT22;1521;53.584;9.938;2023-04-03T06:51:32;4.20;93.10
3023;DHT22;1521;53.584;9.938;2023-04-03T06:53:58;4.50;33.50
3023;DHT22;1521;53.584;9.938;2023-04-03T06:56:29;4.70;1.00
3023;DHT22;1521;53.584;9.938;2023-04-03T06:58:57;5.00;1.00
3023;DHT22;1521;53.584;9.938;2023-04-03T07:01:25;5.30;1.00
3023;DHT22;1521;53.584;9.938;2023-04-03T07:03:52;5.50;1.00
3023;DHT22;1521;53.584;9.938;2023-04-03T07:06:18;5.80;1.00
3023;DHT22;1521;53.584;9.938;2023-04-03T07:08:45;6.10;1.00
3023;DHT22;1521;53.584;9.938;2023-04-03T07:11:12;6.20;1.00
3023;DHT22;1521;53.584;9.938;2023-04-03T07:13:38;6.40;1.00
3023;DHT22;1521;53.584;9.938;2023-04-03T07:16:04;6.80;1.00
3023;DHT22;1521;53.584;9.938;2023-04-03T07:18:31;7.20;1.00
3023;DHT22;1521;53.584;9.938;2023-04-03T07:20:57;7.60;1.00
3023;DHT22;1521;53.584;9.938;2023-04-03T07:23:23;7.90;1.00
3023;DHT22;1521;53.584;9.938;2023-04-03T07:25:50;8.10;1.00
3023;DHT22;1521;53.584;9.938;2023-04-03T07:28:18;8.30;1.00
3023;DHT22;1521;53.584;9.938;2023-04-03T07:30:49;8.50;1.00
3023;DHT22;1521;53.584;9.938;2023-04-03T07:33:16;9.00;1.00
3023;DHT22;1521;53.584;9.938;2023-04-03T07:35:44;9.30;1.00
3023;DHT22;1521;53.584;9.938;2023-04-03T07:38:10;9.60;1.00
3023;DHT22;1521;53.584;9.938;2023-04-03T07:40:37;9.80;1.00
3023;DHT22;1521;53.584;9.938;2023-04-03T07:43:03;9.80;1.00
3023;DHT22;1521;53.584;9.938;2023-04-03T07:45:29;10.00;1.00
3023;DHT22;1521;53.584;9.938;2023-04-03T07:47:55;10.50;1.00
3023;DHT22;1521;53.584;9.938;2023-04-03T07:50:21;10.40;1.00
3023;DHT22;1521;53.584;9.938;2023-04-03T07:52:47;10.60;1.00
3023;DHT22;1521;53.584;9.938;2023-04-03T07:55:12;10.60;1.00
3023;DHT22;1521;53.584;9.938;2023-04-03T07:57:38;10.70;1.00
3023;DHT22;1521;53.584;9.938;2023-04-03T08:00:05;10.90;1.00
3023;DHT22;1521;53.584;9.938;2023-04-03T08:02:30;11.20;1.00
3023;DHT22;1521;53.584;9.938;2023-04-03T08:04:58;11.40;1.00
3023;DHT22;1521;53.584;9.938;2023-04-03T08:07:24;11.80;1.00
3023;DHT22;1521;53.584;9.938;2023-04-03T08:09:49;12.20;1.00
3023;DHT22;1521;53.584;9.938;2023-04-03T08:12:16;12.40;1.00
3023;DHT22;1521;53.584;9.938;2023-04-03T08:14:41;12.70;1.00
3023;DHT22;1521;53.584;9.938;2023-04-03T08:17:08;12.60;1.00
3023;DHT22;1521;53.584;9.938;2023-04-03T08:19:37;12.60;1.00
3023;DHT22;1521;53.584;9.938;2023-04-03T08:22:03;12.90;1.00
3023;DHT22;1521;53.584;9.938;2023-04-03T08:24:29;12.80;1.00
3023;DHT22;1521;53.584;9.938;2023-04-03T08:26:55;13.00;1.00
3023;DHT22;1521;53.584;9.938;2023-04-03T08:29:21;13.40;1.00
3023;DHT22;1521;53.584;9.938;2023-04-03T08:31:47;13.60;1.00
3023;DHT22;1521;53.584;9.938;2023-04-03T08:34:13;13.70;1.00
3023;DHT22;1521;53.584;9.938;2023-04-03T08:36:39;13.70;1.00
3023;DHT22;1521;53.584;9.938;2023-04-03T08:39:05;13.70;1.00
3023;DHT22;1521;53.584;9.938;2023-04-03T08:41:39;13.80;1.00
3023;DHT22;1521;53.584;9.938;2023-04-03T08:44:25;13.40;1.00
3023;DHT22;1521;53.584;9.938;2023-04-03T08:49:37;13.70;1.00
3023;DHT22;1521;53.584;9.938;2023-04-03T08:52:11;13.90;1.00
3023;DHT22;1521;53.584;9.938;2023-04-03T08:54:59;13.70;1.00
3023;DHT22;1521;53.584;9.938;2023-04-03T08:57:33;13.50;1.00
3023;DHT22;1521;53.584;9.938;2023-04-03T09:00:16;13.60;1.00
3023;DHT22;1521;53.584;9.938;2023-04-03T09:02:50;13.70;1.00
3023;DHT22;1521;53.584;9.938;2023-04-03T09:05:20;14.10;1.00
3023;DHT22;1521;53.584;9.938;2023-04-03T09:08:22;14.00;1.00
3023;DHT22;1521;53.584;9.938;2023-04-03T09:10:58;14.10;1.00
3023;DHT22;1521;53.584;9.938;2023-04-03T09:13:52;14.50;1.00
3023;DHT22;1521;53.584;9.938;2023-04-03T09:19:02;14.30;1.00
3023;DHT22;1521;53.584;9.938;2023-04-03T09:21:38;13.80;1.00
3023;DHT22;1521;53.584;9.938;2023-04-03T09:24:06;13.60;1.00
3023;DHT22;1521;53.584;9.938;2023-04-03T09:26:53;13.70;1.00
3023;DHT22;1521;53.584;9.938;2023-04-03T09:29:22;13.80;1.00
3023;DHT22;1521;53.584;9.938;2023-04-03T09:31:52;13.60;1.00
3023;DHT22;1521;53.584;9.938;2023-04-03T09:36:57;13.00;1.00
3023;DHT22;1521;53.584;9.938;2023-04-03T09:39:26;12.60;1.00
3023;DHT22;1521;53.584;9.938;2023-04-03T09:42:12;12.50;1.00
3023;DHT22;1521;53.584;9.938;2023-04-03T09:44:41;12.60;1.00
3023;DHT22;1521;53.584;9.938;2023-04-03T09:49:48;11.90;1.00
3023;DHT22;1521;53.584;9.938;2023-04-03T09:52:25;11.50;1.00
3023;DHT22;1521;53.584;9.938;2023-04-03T09:54:50;10.60;1.00
3023;DHT22;1521;53.584;9.938;2023-04-03T09:57:16;10.20;1.00
3023;DHT22;1521;53.584;9.938;2023-04-03T09:59:59;10.20;1.00
3023;DHT22;1521;53.584;9.938;2023-04-03T10:02:32;10.40;1.00
3023;DHT22;1521;53.584;9.938;2023-04-03T10:04:59;10.50;1.00
3023;DHT22;1521;53.584;9.938;2023-04-03T10:10:21;10.70;1.00
3023;DHT22;1521;53.584;9.938;2023-04-03T10:13:04;10.60;1.00
3023;DHT22;1521;53.584;9.938;2023-04-03T10:15:39;10.50;1.00
3023;DHT22;1521;53.584;9.938;2023-04-03T10:18:19;10.40;1.00
3023;DHT22;1521;53.584;9.938;2023-04-03T10:20:49;10.40;1.00
3023;DHT22;1521;53.584;9.938;2023-04-03T10:23:39;10.60;1.00
3023;DHT22;1521;53.584;9.938;2023-04-03T10:26:35;11.00;1.00
3023;DHT22;1521;53.584;9.938;2023-04-03T10:34:30;11.00;1.00
3023;DHT22;1521;53.584;9.938;2023-04-03T10:37:14;11.10;1.00
3023;DHT22;1521;53.584;9.938;2023-04-03T10:39:54;11.30;1.00
3023;DHT22;1521;53.584;9.938;2023-04-03T10:43:01;11.50;1.00
3023;DHT22;1521;53.584;9.938;2023-04-03T10:53:15;13.80;1.00
3023;DHT22;1521;53.584;9.938;2023-04-03T10:56:01;14.80;1.00
3023;DHT22;1521;53.584;9.938;2023-04-03T10:58:36;15.10;1.00
3023;DHT22;1521;53.584;9.938;2023-04-03T11:01:10;15.70;1.00
3023;DHT22;1521;53.584;9.938;2023-04-03T11:03:47;16.00;1.00
3023;DHT22;1521;53.584;9.938;2023-04-03T11:06:16;15.50;1.00
3023;DHT22;1521;53.584;9.938;2023-04-03T11:11:47;14.60;1.00
3023;DHT22;1521;53.584;9.938;2023-04-03T11:14:30;15.20;1.00
3023;DHT22;1521;53.584;9.938;2023-04-03T11:19:56;15.00;1.00
3023;DHT22;1521;53.584;9.938;2023-04-03T11:22:34;15.50;1.00
3023;DHT22;1521;53.584;9.938;2023-04-03T11:33:18;13.50;1.00
3023;DHT22;1521;53.584;9.938;2023-04-03T11:35:48;13.10;1.00
3023;DHT22;1521;53.584;9.938;2023-04-03T11:38:27;13.80;1.00
3023;DHT22;1521;53.584;9.938;2023-04-03T11:40:55;14.90;1.00
3023;DHT22;1521;53.584;9.938;2023-04-03T11:43:28;15.60;1.00
3023;DHT22;1521;53.584;9.938;2023-04-03T11:45:58;15.60;1.00
3023;DHT22;1521;53.584;9.938;2023-04-03T11:51:00;16.00;1.00
3023;DHT22;1521;53.584;9.938;2023-04-03T11:55:57;13.90;1.00
3023;DHT22;1521;53.584;9.938;2023-04-03T11:58:34;13.00;1.00
3023;DHT22;1521;53.584;9.938;2023-04-03T12:01:03;12.50;1.00
3023;DHT22;1521;53.584;9.938;2023-04-03T12:13:35;14.20;1.00
3023;DHT22;1521;53.584;9.938;2023-04-03T12:16:02;14.30;1.00
3023;DHT22;1521;53.584;9.938;2023-04-03T12:43:29;12.60;1.00
3023;DHT22;1521;53.584;9.938;2023-04-03T12:46:26;12.80;1.00
3023;DHT22;1521;53.584;9.938;2023-04-03T12:48:57;13.20;1.00
3023;DHT22;1521;53.584;9.938;2023-04-03T12:54:00;13.50;1.00
3023;DHT22;1521;53.584;9.938;2023-04-03T12:56:31;13.10;1.00
3023;DHT22;1521;53.584;9.938;2023-04-03T12:59:25;13.00;1.00
3023;DHT22;1521;53.584;9.938;2023-04-03T13:01:56;13.60;1.00
3023;DHT22;1521;53.584;9.938;2023-04-03T13:04:22;14.60;1.00
3023;DHT22;1521;53.584;9.938;2023-04-03T13:06:48;14.90;1.00
3023;DHT22;1521;53.584;9.938;2023-04-03T13:09:23;15.30;1.00
3023;DHT22;1521;53.584;9.938;2023-04-03T13:11:51;15.80;1.00
3023;DHT22;1521;53.584;9.938;2023-04-03T13:14:21;16.00;1.00
3023;DHT22;1521;53.584;9.938;2023-04-03T13:19:19;16.80;1.00
3023;DHT22;1521;53.584;9.938;2023-04-03T13:21:46;16.30;1.00
3023;DHT22;1521;53.584;9.938;2023-04-03T13:24:12;16.10;1.00
3023;DHT22;1521;53.584;9.938;2023-04-03T13:26:39;15.80;1.00
3023;DHT22;1521;53.584;9.938;2023-04-03T13:29:15;15.60;1.00
3023;DHT22;1521;53.584;9.938;2023-04-03T13:31:43;14.90;1.00
3023;DHT22;1521;53.584;9.938;2023-04-03T13:34:20;14.70;1.00
3023;DHT22;1521;53.584;9.938;2023-04-03T13:36:57;15.20;1.00
3023;DHT22;1521;53.584;9.938;2023-04-03T13:39:27;15.40;1.00
3023;DHT22;1521;53.584;9.938;2023-04-03T13:42:20;15.30;1.00
3023;DHT22;1521;53.584;9.938;2023-04-03T13:44:47;15.10;1.00
3023;DHT22;1521;53.584;9.938;2023-04-03T13:47:22;15.40;1.00
3023;DHT22;1521;53.584;9.938;2023-04-03T13:50:14;15.40;1.00
3023;DHT22;1521;53.584;9.938;2023-04-03T13:52:47;15.60;1.00
3023;DHT22;1521;53.584;9.938;2023-04-03T13:55:32;15.60;1.00
3023;DHT22;1521;53.584;9.938;2023-04-03T13:58:16;15.20;1.00
3023;DHT22;1521;53.584;9.938;2023-04-03T14:01:11;15.20;1.00
3023;DHT22;1521;53.584;9.938;2023-04-03T14:03:56;15.30;1.00
3023;DHT22;1521;53.584;9.938;2023-04-03T14:06:22;14.50;1.00
3023;DHT22;1521;53.584;9.938;2023-04-03T14:08:49;14.80;1.00
3023;DHT22;1521;53.584;9.938;2023-04-03T14:11:18;14.70;1.00
3023;DHT22;1521;53.584;9.938;2023-04-03T14:13:45;14.70;1.00
3023;DHT22;1521;53.584;9.938;2023-04-03T14:16:16;14.60;1.00
3023;DHT22;1521;53.584;9.938;2023-04-03T14:18:43;14.80;1.00
3023;DHT22;1521;53.584;9.938;2023-04-03T14:21:12;14.90;1.00
3023;DHT22;1521;53.584;9.938;2023-04-03T14:23:38;14.20;1.00
3023;DHT22;1521;53.584;9.938;2023-04-03T14:26:08;14.00;1.00
3023;DHT22;1521;53.584;9.938;2023-04-03T14:28:35;14.10;1.00
3023;DHT22;1521;53.584;9.938;2023-04-03T14:31:00;14.50;1.00
3023;DHT22;1521;53.584;9.938;2023-04-03T14:33:26;14.20;1.00
3023;DHT22;1521;53.584;9.938;2023-04-03T14:35:54;13.60;1.00
3023;DHT22;1521;53.584;9.938;2023-04-03T14:38:27;13.00;1.00
3023;DHT22;1521;53.584;9.938;2023-04-03T14:40:53;13.00;1.00
3023;DHT22;1521;53.584;9.938;2023-04-03T14:43:19;13.40;1.00
3023;DHT22;1521;53.584;9.938;2023-04-03T14:45:46;13.50;1.00
3023;DHT22;1521;53.584;9.938;2023-04-03T14:48:23;13.80;1.00
3023;DHT22;1521;53.584;9.938;2023-04-03T14:50:51;14.00;1.00
3023;DHT22;1521;53.584;9.938;2023-04-03T14:53:17;13.90;1.00
3023;DHT22;1521;53.584;9.938;2023-04-03T14:55:46;13.70;1.00
3023;DHT22;1521;53.584;9.938;2023-04-03T14:58:14;13.70;1.00
3023;DHT22;1521;53.584;9.938;2023-04-03T15:00:40;13.90;1.00
3023;DHT22;1521;53.584;9.938;2023-04-03T15:03:08;13.90;1.00
3023;DHT22;1521;53.584;9.938;2023-04-03T15:05:35;13.70;1.00
3023;DHT22;1521;53.584;9.938;2023-04-03T15:08:02;13.40;1.00
3023;DHT22;1521;53.584;9.938;2023-04-03T15:10:29;12.80;1.00
3023;DHT22;1521;53.584;9.938;2023-04-03T15:12:56;12.20;1.00
3023;DHT22;1521;53.584;9.938;2023-04-03T15:15:22;11.60;1.00
3023;DHT22;1521;53.584;9.938;2023-04-03T15:17:51;11.40;1.00
3023;DHT22;1521;53.584;9.938;2023-04-03T15:20:22;11.40;1.00
3023;DHT22;1521;53.584;9.938;2023-04-03T15:22:49;11.40;1.00
3023;DHT22;1521;53.584;9.938;2023-04-03T15:25:15;11.50;1.00
3023;DHT22;1521;53.584;9.938;2023-04-03T15:27:42;11.40;1.00
3023;DHT22;1521;53.584;9.938;2023-04-03T15:30:11;10.90;1.00
3023;DHT22;1521;53.584;9.938;2023-04-03T15:32:38;10.80;1.00
3023;DHT22;1521;53.584;9.938;2023-04-03T15:35:04;10.90;1.00
3023;DHT22;1521;53.584;9.938;2023-04-03T15:37:30;10.70;1.00
3023;DHT22;1521;53.584;9.938;2023-04-03T15:39:55;10.40;1.00
3023;DHT22;1521;53.584;9.938;2023-04-03T15:42:21;10.00;1.00
3023;DHT22;1521;53.584;9.938;2023-04-03T15:44:46;9.60;1.00
3023;DHT22;1521;53.584;9.938;2023-04-03T15:47:12;9.40;1.00
3023;DHT22;1521;53.584;9.938;2023-04-03T15:49:38;9.10;1.00
3023;DHT22;1521;53.584;9.938;2023-04-03T15:52:04;8.90;1.00
3023;DHT22;1521;53.584;9.938;2023-04-03T15:54:29;8.80;1.00
3023;DHT22;1521;53.584;9.938;2023-04-03T15:56:55;8.70;1.00
3023;DHT22;1521;53.584;9.938;2023-04-03T15:59:22;8.70;1.00
3023;DHT22;1521;53.584;9.938;2023-04-03T16:01:48;8.80;1.00
3023;DHT22;1521;53.584;9.938;2023-04-03T16:04:15;8.70;1.00
3023;DHT22;1521;53.584;9.938;2023-04-03T16:06:42;8.60;1.00
3023;DHT22;1521;53.584;9.938;2023-04-03T16:09:08;8.40;1.00
3023;DHT22;1521;53.584;9.938;2023-04-03T16:11:33;8.30;1.00
3023;DHT22;1521;53.584;9.938;2023-04-03T16:14:01;8.20;1.00
3023;DHT22;1521;53.584;9.938;2023-04-03T16:16:27;8.10;1.00
3023;DHT22;1521;53.584;9.938;2023-04-03T16:18:54;8.10;1.00
3023;DHT22;1521;53.584;9.938;2023-04-03T16:21:21;8.20;1.00
3023;DHT22;1521;53.584;9.938;2023-04-03T16:23:46;8.10;1.00
3023;DHT22;1521;53.584;9.938;2023-04-03T16:26:12;8.20;1.00
3023;DHT22;1521;53.584;9.938;2023-04-03T16:28:38;8.10;1.00
3023;DHT22;1521;53.584;9.938;2023-04-03T16:31:05;8.10;1.00
3023;DHT22;1521;53.584;9.938;2023-04-03T16:33:31;8.00;1.00
3023;DHT22;1521;53.584;9.938;2023-04-03T16:35:57;7.80;1.00
3023;DHT22;1521;53.584;9.938;2023-04-03T16:38:23;7.50;1.00
3023;DHT22;1521;53.584;9.938;2023-04-03T16:40:49;7.40;1.00
3023;DHT22;1521;53.584;9.938;2023-04-03T16:43:15;7.20;1.00
3023;DHT22;1521;53.584;9.938;2023-04-03T16:45:41;7.10;1.00
3023;DHT22;1521;53.584;9.938;2023-04-03T16:48:06;7.10;1.00
3023;DHT22;1521;53.584;9.938;2023-04-03T16:50:32;6.90;1.00
3023;DHT22;1521;53.584;9.938;2023-04-03T16:52:58;6.90;1.00
3023;DHT22;1521;53.584;9.938;2023-04-03T16:55:23;6.80;1.00
3023;DHT22;1521;53.584;9.938;2023-04-03T16:57:49;6.80;1.00
3023;DHT22;1521;53.584;9.938;2023-04-03T17:00:15;6.70;1.00
3023;DHT22;1521;53.584;9.938;2023-04-03T17:02:41;6.70;1.00
3023;DHT22;1521;53.584;9.938;2023-04-03T17:05:07;6.60;1.00
3023;DHT22;1521;53.584;9.938;2023-04-03T17:07:33;6.60;1.00
3023;DHT22;1521;53.584;9.938;2023-04-03T17:09:59;6.40;1.00
3023;DHT22;1521;53.584;9.938;2023-04-03T17:12:25;6.20;1.00
3023;DHT22;1521;53.584;9.938;2023-04-03T17:14:50;6.20;1.00
3023;DHT22;1521;53.584;9.938;2023-04-03T17:17:20;6.20;1.00
3023;DHT22;1521;53.584;9.938;2023-04-03T17:19:46;6.20;1.00
3023;DHT22;1521;53.584;9.938;2023-04-03T17:22:12;6.10;1.00
3023;DHT22;1521;53.584;9.938;2023-04-03T17:24:37;6.00;1.00
3023;DHT22;1521;53.584;9.938;2023-04-03T17:27:03;5.90;1.00
3023;DHT22;1521;53.584;9.938;2023-04-03T17:29:29;5.80;1.00
3023;DHT22;1521;53.584;9.938;2023-04-03T17:31:55;5.70;1.00
3023;DHT22;1521;53.584;9.938;2023-04-03T17:34:21;5.60;1.00
3023;DHT22;1521;53.584;9.938;2023-04-03T17:36:47;5.60;1.00
3023;DHT22;1521;53.584;9.938;2023-04-03T17:39:13;5.60;1.00
3023;DHT22;1521;53.584;9.938;2023-04-03T17:41:39;5.50;1.00
3023;DHT22;1521;53.584;9.938;2023-04-03T17:44:04;5.40;1.00
3023;DHT22;1521;53.584;9.938;2023-04-03T17:46:31;5.40;1.00
3023;DHT22;1521;53.584;9.938;2023-04-03T17:48:57;5.30;1.00
3023;DHT22;1521;53.584;9.938;2023-04-03T17:51:26;5.20;1.00
3023;DHT22;1521;53.584;9.938;2023-04-03T17:53:51;5.30;1.00
3023;DHT22;1521;53.584;9.938;2023-04-03T17:56:19;5.30;1.00
3023;DHT22;1521;53.584;9.938;2023-04-03T17:58:46;5.10;1.00